createdAt,value
2023-02-16T00:00:17.291Z,42.44
2023-02-16T00:05:38.965Z,42.23
2023-02-16T00:11:20.918Z,42.58
2023-02-16T00:16:42.801Z,42.39
2023-02-16T00:22:06.456Z,42.83
2023-02-16T00:27:28.170Z,42.54
2023-02-16T00:32:50.620Z,43.04
2023-02-16T00:38:13.336Z,42.85
2023-02-16T00:43:35.055Z,42.60
2023-02-16T00:48:56.794Z,42.92
2023-02-16T00:54:18.670Z,43.10
2023-02-16T00:59:40.391Z,42.77
2023-02-16T01:05:02.122Z,42.96
2023-02-16T01:10:43.637Z,43.18
2023-02-16T01:16:12.476Z,43.20
2023-02-16T01:21:34.285Z,43.39
2023-02-16T01:26:56.018Z,43.19
2023-02-16T01:32:17.949Z,43.17
2023-02-16T01:37:39.772Z,43.56
2023-02-16T01:43:16.497Z,43.65
2023-02-16T01:48:38.300Z,43.50
2023-02-16T01:54:17.532Z,43.37
2023-02-16T02:00:04.943Z,43.37
2023-02-16T02:05:38.017Z,43.35
2023-02-16T02:11:35.198Z,43.80
2023-02-16T02:17:04.270Z,43.81
2023-02-16T02:22:56.685Z,43.53
2023-02-16T02:28:27.755Z,43.70
2023-02-16T02:34:13.207Z,43.80
2023-02-16T02:39:34.853Z,43.47
2023-02-16T02:45:24.616Z,43.91
2023-02-16T02:51:10.967Z,43.72
2023-02-16T02:56:51.224Z,44.01
2023-02-16T03:02:13.616Z,44.00
2023-02-16T03:07:49.411Z,43.69
2023-02-16T03:13:23.608Z,44.12
2023-02-16T03:19:06.346Z,44.08
2023-02-16T03:24:49.533Z,43.79
2023-02-16T03:30:13.015Z,44.00
2023-02-16T03:35:35.936Z,44.17
2023-02-16T03:40:57.704Z,43.86
2023-02-16T03:46:19.522Z,43.76
2023-02-16T03:51:41.321Z,43.96
2023-02-16T03:57:03.106Z,44.22
2023-02-16T04:02:26.360Z,44.00
2023-02-16T04:07:48.115Z,43.80
2023-02-16T04:13:09.901Z,43.95
2023-02-16T04:18:31.610Z,44.04
2023-02-16T04:23:53.337Z,43.93
2023-02-16T04:29:15.517Z,43.86
2023-02-16T04:34:37.249Z,43.86
2023-02-16T04:39:59.077Z,44.02
2023-02-16T04:45:20.934Z,43.99
2023-02-16T04:50:42.628Z,43.85
2023-02-16T04:56:04.622Z,44.09
2023-02-16T05:01:28.310Z,44.21
2023-02-16T05:06:50.475Z,44.29
2023-02-16T05:12:50.868Z,44.17
2023-02-16T05:18:12.586Z,44.25
2023-02-16T05:23:34.268Z,43.95
2023-02-16T05:28:56.682Z,43.99
2023-02-16T05:34:18.752Z,43.95
2023-02-16T05:39:40.795Z,44.26
2023-02-16T05:45:03.731Z,43.99
2023-02-16T05:50:25.432Z,44.11
2023-02-16T05:55:47.202Z,44.09
2023-02-16T06:01:08.916Z,44.00
2023-02-16T06:06:30.581Z,44.15
2023-02-16T06:11:52.274Z,44.09
2023-02-16T06:17:14.393Z,43.77
2023-02-16T06:22:36.107Z,43.88
2023-02-16T06:27:57.844Z,43.99
2023-02-16T06:33:19.551Z,43.96
2023-02-16T06:38:41.540Z,43.89
2023-02-16T06:44:06.659Z,43.48
2023-02-16T06:49:28.477Z,43.19
2023-02-16T06:54:50.335Z,42.99
2023-02-16T07:00:12.603Z,42.88
2023-02-16T07:05:34.606Z,43.29
2023-02-16T07:10:56.452Z,43.26
2023-02-16T07:16:18.459Z,43.23
2023-02-16T07:21:40.230Z,42.89
2023-02-16T07:27:02.021Z,43.33
2023-02-16T07:32:24.211Z,43.27
2023-02-16T07:37:45.989Z,42.91
2023-02-16T07:43:08.696Z,43.10
2023-02-16T07:48:30.421Z,43.18
2023-02-16T07:53:53.129Z,43.00
2023-02-16T07:59:17.051Z,43.18
2023-02-16T08:04:38.759Z,43.09
2023-02-16T08:10:01.264Z,43.00
2023-02-16T08:15:24.139Z,43.35
2023-02-16T08:21:02.707Z,43.30
2023-02-16T08:26:29.200Z,42.94
2023-02-16T08:31:51.896Z,43.30
2023-02-16T08:37:14.002Z,43.49
2023-02-16T08:42:37.896Z,43.43
2023-02-16T08:48:01.395Z,42.98
2023-02-16T08:53:23.486Z,43.22
2023-02-16T08:58:45.594Z,43.26
2023-02-16T09:04:07.594Z,43.21
2023-02-16T09:09:29.465Z,43.41
2023-02-16T09:14:53.555Z,43.58
2023-02-16T09:20:15.811Z,43.35
2023-02-16T09:25:39.021Z,43.29
2023-02-16T09:31:01.263Z,43.15
2023-02-16T09:36:23.157Z,43.17
2023-02-16T09:42:06.163Z,42.57
2023-02-16T09:47:31.549Z,42.50
2023-02-16T09:53:11.776Z,42.56
2023-02-16T09:58:42.052Z,42.40
2023-02-16T10:04:25.571Z,42.43
2023-02-16T10:09:51.616Z,42.86
2023-02-16T10:15:20.677Z,42.82
2023-02-16T10:20:47.472Z,42.51
2023-02-16T10:26:30.318Z,42.79
2023-02-16T10:32:15.518Z,42.59
2023-02-16T10:37:52.095Z,41.91
2023-02-16T10:43:22.783Z,40.33
2023-02-16T10:48:46.616Z,40.01
2023-02-16T10:54:17.656Z,40.00
2023-02-16T10:59:44.908Z,40.22
2023-02-16T11:05:31.477Z,39.83
2023-02-16T11:10:54.458Z,39.94
2023-02-16T11:16:23.398Z,39.72
2023-02-16T11:21:52.734Z,39.99
2023-02-16T11:27:14.400Z,39.79
2023-02-16T11:32:36.349Z,40.08
2023-02-16T11:37:58.213Z,40.23
2023-02-16T11:43:20.575Z,39.95
2023-02-16T11:48:43.295Z,40.22
2023-02-16T11:54:07.893Z,39.97
2023-02-16T11:59:35.481Z,39.85
2023-02-16T12:05:00.840Z,40.26
2023-02-16T12:10:36.341Z,40.02
2023-02-16T12:16:24.086Z,40.11
2023-02-16T12:22:11.448Z,39.81
2023-02-16T12:27:42.162Z,40.13
2023-02-16T12:33:13.346Z,40.13
2023-02-16T12:38:46.640Z,39.89
2023-02-16T12:44:20.839Z,39.98
2023-02-16T12:49:47.809Z,39.81
2023-02-16T12:55:36.123Z,39.83
2023-02-16T13:01:12.306Z,39.95
2023-02-16T13:06:42.387Z,39.79
2023-02-16T13:12:34.971Z,39.72
2023-02-16T13:18:01.600Z,39.99
2023-02-16T13:23:33.071Z,39.78
2023-02-16T13:29:16.724Z,39.64
2023-02-16T13:34:58.128Z,39.71
2023-02-16T13:40:53.860Z,39.16
2023-02-16T13:46:38.026Z,39.33
2023-02-16T13:52:00.831Z,39.13
2023-02-16T13:57:50.687Z,38.70
2023-02-16T14:03:38.233Z,38.93
2023-02-16T14:09:21.488Z,38.73
2023-02-16T14:14:43.238Z,39.24
2023-02-16T14:20:14.105Z,38.69
2023-02-16T14:25:38.744Z,38.78
2023-02-16T14:31:13.858Z,38.88
2023-02-16T14:36:55.716Z,39.34
2023-02-16T14:42:44.500Z,39.28
2023-02-16T14:48:22.433Z,39.33
2023-02-16T14:54:07.470Z,39.40
2023-02-16T14:59:39.594Z,39.29
2023-02-16T15:05:17.972Z,39.19
2023-02-16T15:10:40.590Z,39.45
2023-02-16T15:16:05.263Z,39.20
2023-02-16T15:21:30.903Z,39.61
2023-02-16T15:26:56.296Z,39.73
2023-02-16T15:32:18.872Z,39.71
2023-02-16T15:37:40.714Z,39.53
2023-02-16T15:43:31.961Z,39.61
2023-02-16T15:48:54.204Z,39.70
2023-02-16T15:54:15.887Z,39.36
2023-02-16T15:59:43.791Z,39.80
2023-02-16T16:05:21.010Z,39.76
2023-02-16T16:10:44.518Z,39.78
2023-02-16T16:16:10.025Z,39.70
2023-02-16T16:21:36.067Z,39.70
2023-02-16T16:26:59.587Z,39.58
2023-02-16T16:32:25.287Z,39.38
2023-02-16T16:37:49.719Z,39.52
2023-02-16T16:43:17.937Z,39.60
2023-02-16T16:48:45.219Z,39.70
2023-02-16T16:54:32.907Z,39.48
2023-02-16T16:59:54.677Z,39.42
2023-02-16T17:05:16.702Z,39.91
2023-02-16T17:10:40.702Z,39.86
2023-02-16T17:16:15.973Z,39.97
2023-02-16T17:21:37.710Z,40.02
2023-02-16T17:26:59.455Z,39.92
2023-02-16T17:32:23.764Z,39.89
2023-02-16T17:37:45.572Z,39.79
2023-02-16T17:43:12.801Z,39.65
2023-02-16T17:48:34.664Z,39.07
2023-02-16T17:53:56.574Z,38.71
2023-02-16T17:59:18.401Z,38.28
2023-02-16T18:04:43.192Z,37.95
2023-02-16T18:10:05.992Z,37.96
2023-02-16T18:15:27.957Z,37.85
2023-02-16T18:20:49.760Z,38.25
2023-02-16T18:26:15.723Z,38.49
2023-02-16T18:31:40.702Z,38.62
2023-02-16T18:37:05.652Z,38.98
2023-02-16T18:42:28.192Z,39.37
2023-02-16T18:47:50.032Z,39.82
2023-02-16T18:53:11.801Z,40.02
2023-02-16T18:58:34.497Z,40.24
2023-02-16T19:03:57.285Z,40.08
2023-02-16T19:09:19.678Z,40.35
2023-02-16T19:14:41.453Z,40.44
2023-02-16T19:20:03.353Z,39.65
2023-02-16T19:25:26.917Z,39.91
2023-02-16T19:30:50.206Z,39.39
2023-02-16T19:36:12.984Z,39.24
2023-02-16T19:41:38.223Z,38.85
2023-02-16T19:47:00.045Z,38.51
2023-02-16T19:52:21.904Z,38.76
2023-02-16T19:57:43.773Z,38.79
2023-02-16T20:03:06.304Z,38.77
2023-02-16T20:08:28.378Z,38.71
2023-02-16T20:13:51.614Z,38.72
2023-02-16T20:19:13.405Z,38.78
2023-02-16T20:24:35.237Z,39.08
2023-02-16T20:29:57.320Z,39.25
2023-02-16T20:35:19.117Z,39.14
2023-02-16T20:40:41.252Z,39.25
2023-02-16T20:46:04.631Z,39.16
2023-02-16T20:51:26.797Z,39.16
2023-02-16T20:56:48.670Z,39.42
2023-02-16T21:02:12.141Z,39.34
2023-02-16T21:07:33.972Z,39.16
2023-02-16T21:12:55.831Z,39.26
2023-02-16T21:18:17.631Z,39.26
2023-02-16T21:23:39.439Z,39.36
2023-02-16T21:29:01.782Z,39.65
2023-02-16T21:34:23.670Z,39.55
2023-02-16T21:40:04.248Z,39.63
2023-02-16T21:45:26.187Z,39.75
2023-02-16T21:50:47.966Z,39.82
2023-02-16T21:56:27.027Z,39.50
2023-02-16T22:01:51.856Z,39.63
2023-02-16T22:07:13.634Z,39.98
2023-02-16T22:12:35.462Z,39.74
2023-02-16T22:17:57.340Z,39.92
2023-02-16T22:23:19.084Z,39.84
2023-02-16T22:28:40.949Z,39.81
2023-02-16T22:34:05.704Z,39.93
2023-02-16T22:39:27.545Z,40.22
2023-02-16T22:44:49.467Z,39.92
2023-02-16T22:50:11.350Z,39.84
2023-02-16T22:55:33.090Z,40.11
2023-02-16T23:00:55.927Z,40.03
2023-02-16T23:06:21.015Z,39.85
2023-02-16T23:11:43.174Z,39.80
2023-02-16T23:17:05.021Z,39.90
2023-02-16T23:22:26.860Z,40.01
2023-02-16T23:27:48.728Z,40.31
2023-02-16T23:33:11.159Z,40.26
2023-02-16T23:38:32.892Z,40.07
2023-02-16T23:43:55.770Z,40.34
2023-02-16T23:49:17.705Z,40.37
2023-02-16T23:54:39.602Z,40.23
